Data for 03/25/2013

Time Sea-Level Adjusted Pressure Absolute Pressure Temperature Relative Humidity Dew Point Precipitation   
(mb) (inHg) (mb) (inHg) (C) (F) (%) (C) (F) (mm) (in)
09:02 1023 30.21 852 25.16 -7.2 19.1 54 -15 5 0 0
09:03 1023 30.21 852 25.16 -7.1 19.2 57 -14.3 6.3 0 0
09:04 1023 30.21 852 25.16 -6.9 19.6 56 -14.4 6.2 0 0
09:05 1023 30.21 852 25.16 -6.7 19.9 55 -14.3 6.2 0 0
09:06 1023 30.21 852 25.16 -6.7 19.9 54 -14.7 5.6 0 0
09:07 1023 30.21 852 25.16 -6.7 20 54 -14.6 5.8 0 0
09:08 1023 30.21 852 25.16 -6.7 20 55 -14.3 6.2 0 0
09:09 1023 30.21 852 25.16 -6.7 19.9 55 -14.3 6.3 0 0
09:10 1023 30.21 852 25.16 -6.6 20 54 -14.5 5.8 0 0
09:11 1023 30.21 852 25.16 -6.7 19.9 57 -13.9 6.9 0 0
09:12 1023 30.21 852 25.16 -6.7 20 58 -13.6 7.4 0 0
09:13 1023 30.21 852 25.16 -6.5 20.2 53 -14.5 5.8 0 0
09:14 1023 30.21 852 25.16 -6.5 20.3 55 -14.2 6.5 0 0
09:15 1023 30.21 852 25.16 -6.4 20.5 55 -14.1 6.6 0 0
09:16 1023 30.21 852 25.16 -6.4 20.5 54 -14.2 6.5 0 0
09:17 1023 30.21 852 25.16 -6.5 20.3 55 -14.1 6.7 0 0
09:18 1023 30.21 852 25.16 -6.5 20.4 55 -14.1 6.6 0 0
09:19 1023 30.21 852 25.16 -6.4 20.5 54 -14.1 6.5 0 0
09:20 1023 30.21 852 25.16 -6.4 20.6 52 -14.8 5.4 0 0
09:21 1023 30.21 852 25.16 -6.4 20.5 56 -13.8 7.2 0 0
09:22 1023 30.21 852 25.16 -6.2 20.8 56 -13.7 7.3 0 0
09:23 1023 30.21 852 25.16 -6.1 21 51 -14.6 5.7 0 0
09:24 1023 30.21 852 25.16 -6.1 21 50 -15 4.9 0 0
09:25 1023 30.21 852 25.16 -6.1 21 51 -14.7 5.5 0 0
09:26 1023 30.21 852 25.16 -6 21.1 54 -14 6.8 0 0
09:27 1023 30.21 852 25.16 -6 21.3 53 -14.2 6.5 0 0
09:28 1023 30.21 852 25.16 -5.9 21.4 53 -14.1 6.7 0 0
09:29 1023 30.21 852 25.16 -5.8 21.6 52 -14.2 6.4 0 0
09:30 1023 30.21 852 25.16 -5.7 21.7 53 -13.9 7.1 0 0
09:31 1023 30.21 852 25.16 -5.6 22 50 -14.5 5.9 0 0
09:32 1023 30.21 852 25.16 -5.5 22.1 49 -14.6 5.7 0 0
09:33 1023 30.21 852 25.16 -5.5 22.1 49 -14.7 5.5 0 0
09:34 1023 30.21 852 25.16 -5.5 22.1 49 -14.7 5.6 0 0
09:35 1023 30.21 852 25.16 -5.5 22.1 49 -14.5 5.9 0 0
09:36 1023 30.21 852 25.16 -5.4 22.3 53 -13.5 7.7 0 0
09:37 1023 30.21 852 25.16 -5.3 22.5 50 -14 6.7 0 0
09:38 1023 30.21 852 25.16 -5.2 22.6 50 -14 6.7 0 0
09:39 1023 30.21 852 25.16 -5.2 22.7 50 -14.1 6.7 0 0
09:40 1023 30.21 852 25.16 -5.1 22.8 46 -15.1 4.9 0 0
09:41 1023 30.21 852 25.16 -5.1 22.8 46 -14.9 5.2 0 0
09:42 1023 30.21 852 25.16 -5.1 22.9 43 -15.9 3.3 0 0
09:43 1023 30.21 852 25.16 -5.2 22.7 45 -15.3 4.4 0 0
09:44 1023 30.21 852 25.16 -5.1 22.8 46 -14.9 5.1 0 0
09:45 1023 30.21 852 25.16 -5 23 44 -15.5 4.1 0 0
09:46 1023 30.21 852 25.16 -5 23 45 -15.3 4.5 0 0
09:47 1023 30.21 852 25.16 -4.9 23.2 43 -15.6 4 0 0
09:48 1023 30.21 852 25.16 -4.8 23.3 44 -15.3 4.4 0 0
09:49 1023 30.21 852 25.16 -4.8 23.4 42 -15.9 3.4 0 0
09:50 1023 30.21 852 25.16 -4.8 23.3 43 -15.6 4 0 0
09:51 1023 30.21 852 25.16 -4.7 23.5 43 -15.6 3.9 0 0
09:52 1023 30.21 852 25.16 -4.6 23.7 44 -15.1 4.8 0 0
09:53 1023 30.21 852 25.16 -4.6 23.8 41 -16 3.2 0 0
09:54 1023 30.21 852 25.16 -4.4 24 45 -14.6 5.7 0 0
09:55 1023 30.21 852 25.16 -4.4 24.2 41 -15.9 3.4 0 0
09:56 1023 30.21 852 25.16 -4.4 24 41 -15.9 3.4 0 0
09:57 1023 30.21 852 25.16 -4.4 24 41 -16 3.3 0 0
09:58 1023 30.21 852 25.16 -4.4 24 42 -15.4 4.3 0 0
09:59 1023 30.21 852 25.16 -4.3 24.2 44 -14.7 5.5 0 0
10:00 1023 30.21 852 25.16 -4.1 24.6 41 -15.6 4 0 0
10:01 1023 30.21 852 25.16 -4 24.7 43 -15 5 0 0
10:02 1023 30.21 852 25.16 -4.1 24.6 40 -15.8 3.6 0 0
10:03 1023 30.21 852 25.16 -4.1 24.5 42 -15.3 4.4 0 0
10:04 1023 30.21 852 25.16 -4.1 24.6 39 -16.1 3 0 0
10:05 1023 30.21 852 25.16 -4.1 24.6 40 -15.9 3.3 0 0
10:06 1023 30.21 852 25.16 -4.1 24.7 41 -15.5 4.2 0 0
10:07 1023 30.21 852 25.16 -3.8 25.1 41 -15.2 4.7 0 0
10:08 1023 30.21 852 25.16 -3.6 25.5 39 -15.6 4 0 0
10:09 1023 30.21 852 25.16 -3.5 25.6 38 -15.9 3.5 0 0
10:10 1023 30.21 852 25.16 -3.6 25.6 39 -15.6 3.9 0 0
10:11 1023 30.21 852 25.16 -3.5 25.6 40 -15.4 4.3 0 0
10:12 1023 30.21 852 25.16 -3.4 25.9 37 -16 3.2 0 0
10:13 1023 30.21 852 25.16 -3.3 26.1 38 -15.6 3.9 0 0
10:14 1022 30.18 852 25.16 -3.2 26.2 40 -15.1 4.8 0 0
10:15 1022 30.18 852 25.16 -3.2 26.3 39 -15.3 4.5 0 0
10:16 1022 30.18 852 25.16 -3 26.5 38 -15.5 4.2 0 0
10:17 1023 30.21 852 25.16 -3 26.6 39 -15 5 0 0
10:18 1022 30.18 852 25.16 -3 26.5 39 -15.1 4.7 0 0
10:19 1022 30.18 852 25.16 -3.1 26.4 39 -15.1 4.9 0 0
10:20 1022 30.18 852 25.16 -3 26.6 36 -16.1 3 0 0
10:21 1022 30.18 852 25.16 -3 26.7 38 -15.4 4.3 0 0
10:22 1022 30.18 852 25.16 -2.8 27 37 -15.6 3.9 0 0
10:23 1022 30.18 852 25.16 -2.9 26.8 38 -15.2 4.7 0 0
10:24 1022 30.18 852 25.16 -2.8 26.9 38 -15.3 4.4 0 0
10:25 1022 30.18 852 25.16 -2.7 27.2 40 -14.5 5.9 0 0
10:26 1022 30.18 852 25.16 -2.6 27.4 38 -15.1 4.8 0 0
10:27 1022 30.18 852 25.16 -2.5 27.5 37 -15.2 4.6 0 0
10:28 1022 30.18 852 25.16 -2.6 27.4 40 -14.3 6.3 0 0
10:29 1022 30.18 852 25.16 -2.6 27.3 36 -15.8 3.6 0 0
10:30 1022 30.18 852 25.16 -2.6 27.4 37 -15.4 4.3 0 0
10:31 1022 30.18 852 25.16 -2.5 27.5 36 -15.5 4.1 0 0
10:32 1022 30.18 852 25.16 -2.4 27.6 36 -15.7 3.7 0 0
10:33 1022 30.18 852 25.16 -2.5 27.5 37 -15.4 4.3 0 0
10:34 1022 30.18 852 25.16 -2.6 27.4 42 -13.9 7.1 0 0
10:35 1022 30.18 852 25.16 -2.6 27.3 39 -14.7 5.5 0 0
10:36 1022 30.18 852 25.16 -2.6 27.3 37 -15.4 4.3 0 0
10:37 1022 30.18 852 25.16 -2.5 27.5 38 -14.9 5.3 0 0
10:38 1022 30.18 852 25.16 -2.3 27.8 38 -14.7 5.6 0 0
10:39 1022 30.18 852 25.16 -2.2 28 38 -14.8 5.3 0 0
10:40 1022 30.18 852 25.16 -2.2 28 40 -14.1 6.6 0 0
10:41 1022 30.18 851 25.13 -2.1 28.2 37 -14.9 5.2 0 0
10:42 1022 30.18 852 25.16 -2 28.5 40 -13.8 7.2 0 0
10:43 1022 30.18 852 25.16 -1.8 28.7 39 -14 6.8 0 0
10:44 1022 30.18 851 25.13 -1.8 28.8 39 -13.9 6.9 0 0
10:45 1022 30.18 852 25.16 -1.7 28.9 38 -14.4 6.1 0 0
10:46 1022 30.18 852 25.16 -1.8 28.8 35 -15.3 4.5 0 0
10:47 1022 30.18 851 25.13 -1.9 28.6 34 -15.8 3.5 0 0
10:48 1022 30.18 851 25.13 -1.8 28.8 35 -15.4 4.3 0 0
10:49 1022 30.18 852 25.16 -1.5 29.2 40 -13.3 8 0 0
10:50 1022 30.18 852 25.16 -1.2 29.8 34 -15.1 4.8 0 0
10:51 1022 30.18 851 25.13 -1.2 29.9 35 -14.7 5.5 0 0
10:52 1022 30.18 851 25.13 -1.3 29.6 34 -15.2 4.6 0 0
10:53 1022 30.18 851 25.13 -1.5 29.4 35 -15.2 4.6 0 0
10:54 1022 30.18 852 25.16 -1.5 29.4 32 -16 3.2 0 0
10:55 1022 30.18 851 25.13 -1.6 29.1 33 -15.9 3.4 0 0
10:56 1022 30.18 851 25.13 -1.7 28.9 36 -14.9 5.2 0 0
10:57 1022 30.18 851 25.13 -1.8 28.8 35 -15.3 4.5 0 0
10:58 1022 30.18 851 25.13 -1.8 28.7 33 -16.1 3 0 0
10:59 1022 30.18 851 25.13 -1.8 28.7 35 -15.3 4.4 0 0
11:00 1022 30.18 851 25.13 -1.8 28.8 40 -13.7 7.3 0 0
11:01 1022 30.18 851 25.13 -1.6 29.1 36 -14.8 5.4 0 0
11:02 1022 30.18 851 25.13 -1.4 29.4 43 -12.4 9.7 0 0
11:03 1022 30.18 851 25.13 -1.3 29.7 44 -12.1 10.1 0 0
11:04 1022 30.18 851 25.13 -1.2 29.8 41 -12.8 9 0 0
11:05 1022 30.18 851 25.13 -1.2 29.8 40 -13.1 8.5 0 0
11:06 1022 30.18 851 25.13 -1.2 29.9 32 -15.7 3.7 0 0
11:07 1022 30.18 851 25.13 -1.2 29.8 33 -15.4 4.2 0 0
11:08 1022 30.18 851 25.13 -1.2 29.8 38 -13.7 7.3 0 0
11:09 1022 30.18 851 25.13 -1.1 30.1 33 -15.3 4.5 0 0
11:10 1022 30.18 851 25.13 -1 30.1 35 -14.5 5.8 0 0
11:11 1022 30.18 851 25.13 -1 30.2 38 -13.7 7.3 0 0
11:12 1022 30.18 851 25.13 -1 30.3 36 -14.3 6.3 0 0
11:13 1022 30.18 851 25.13 -1.1 30 36 -14.3 6.2 0 0
11:14 1022 30.18 851 25.13 -1.2 29.8 41 -12.8 8.9 0 0
11:15 1022 30.18 851 25.13 -1.3 29.7 38 -13.8 7.1 0 0
11:16 1022 30.18 851 25.13 -1.4 29.5 39 -13.6 7.5 0 0
11:17 1022 30.18 851 25.13 -1.4 29.4 37 -14.3 6.2 0 0
11:18 1022 30.18 851 25.13 -1.5 29.4 39 -13.6 7.5 0 0
11:19 1022 30.18 851 25.13 -1.4 29.5 36 -14.6 5.7 0 0
11:20 1022 30.18 851 25.13 -1.4 29.5 36 -14.7 5.6 0 0
11:21 1022 30.18 851 25.13 -1.4 29.5 33 -15.6 3.9 0 0
11:22 1022 30.18 851 25.13 -1.4 29.6 37 -14.3 6.2 0 0
11:23 1022 30.18 851 25.13 -1.2 29.8 36 -14.3 6.2 0 0
11:24 1022 30.18 851 25.13 -1.1 30.1 41 -12.8 9 0 0
11:25 1022 30.18 851 25.13 -0.9 30.3 40 -13 8.6 0 0
11:26 1022 30.18 851 25.13 -0.8 30.5 37 -13.9 7 0 0
11:27 1022 30.18 851 25.13 -1 30.3 37 -13.8 7.2 0 0
11:28 1022 30.18 851 25.13 -1 30.3 40 -12.8 9 0 0
11:29 1022 30.18 851 25.13 -1 30.2 39 -13.3 8 0 0
11:30 1022 30.18 851 25.13 -1 30.1 40 -13.1 8.5 0 0
11:31 1022 30.18 851 25.13 -1.1 30 38 -13.8 7.1 0 0
11:32 1022 30.18 851 25.13 -1.1 30.1 35 -14.8 5.3 0 0
11:33 1022 30.18 851 25.13 -1.1 30.1 38 -13.6 7.4 0 0
11:34 1022 30.18 851 25.13 -1 30.1 34 -15.1 4.8 0 0
11:35 1022 30.18 851 25.13 -0.9 30.3 36 -14.1 6.5 0 0
11:36 1022 30.18 851 25.13 -0.8 30.5 33 -15.1 4.9 0 0
11:37 1022 30.18 851 25.13 -0.8 30.5 33 -15.1 4.9 0 0
11:38 1022 30.18 851 25.13 -0.8 30.5 36 -14.1 6.6 0 0
11:39 1022 30.18 851 25.13 -0.7 30.7 34 -14.6 5.7 0 0
11:40 1022 30.18 851 25.13 -0.7 30.7 34 -14.6 5.7 0 0
11:41 1022 30.18 851 25.13 -0.6 30.9 41 -12.2 10 0 0
11:42 1022 30.18 851 25.13 -0.4 31.3 37 -13.3 8 0 0
11:43 1022 30.18 851 25.13 -0.3 31.5 33 -14.9 5.2 0 0
11:44 1022 30.18 851 25.13 -0.2 31.6 37 -13.4 7.9 0 0
11:45 1022 30.18 851 25.13 -0.1 31.8 36 -13.4 7.9 0 0
11:46 1022 30.18 851 25.13 -0.2 31.7 38 -12.8 9 0 0
11:47 1022 30.18 851 25.13 -0.2 31.7 36 -13.6 7.5 0 0
11:48 1022 30.18 851 25.13 -0.2 31.6 36 -13.7 7.3 0 0
11:49 1022 30.18 851 25.13 -0.2 31.6 37 -13.2 8.3 0 0
11:50 1022 30.18 851 25.13 -0.2 31.6 37 -13.2 8.3 0 0
11:51 1022 30.18 851 25.13 -0.3 31.4 36 -13.6 7.5 0 0
11:52 1022 30.18 851 25.13 -0.3 31.5 39 -12.7 9.1 0 0
11:53 1022 30.18 851 25.13 -0.2 31.7 38 -12.9 8.7 0 0
11:54 1022 30.18 851 25.13 -0.2 31.6 33 -14.5 5.9 0 0
11:55 1022 30.18 851 25.13 -0.3 31.5 33 -14.9 5.2 0 0
11:56 1022 30.18 851 25.13 -0.3 31.5 35 -14 6.7 0 0
11:57 1022 30.18 851 25.13 -0.2 31.7 37 -13.3 8.1 0 0
11:58 1022 30.18 851 25.13 0 32 38 -12.8 9 0 0
11:59 1022 30.18 851 25.13 0.1 32.2 33 -14.5 5.9 0 0
12:00 1022 30.18 851 25.13 0.2 32.4 33 -14.4 6.1 0 0
12:01 1022 30.18 851 25.13 0.3 32.6 31 -14.8 5.4 0 0
12:02 1022 30.18 851 25.13 0.4 32.7 35 -13.4 7.9 0 0
12:03 1022 30.18 851 25.13 0.3 32.6 32 -14.6 5.7 0 0
12:04 1022 30.18 851 25.13 0.4 32.6 33 -14.3 6.2 0 0
12:05 1022 30.18 851 25.13 0.4 32.7 32 -14.6 5.8 0 0
12:06 1022 30.18 851 25.13 0.4 32.7 36 -13 8.6 0 0
12:07 1022 30.18 851 25.13 0.4 32.7 32 -14.4 6 0 0
12:08 1022 30.18 851 25.13 0.4 32.8 35 -13.4 7.8 0 0
12:09 1022 30.18 851 25.13 0.4 32.7 31 -14.7 5.5 0 0
12:10 1022 30.18 851 25.13 0.3 32.5 31 -14.8 5.4 0 0
12:11 1022 30.18 851 25.13 0.2 32.3 34 -13.9 6.9 0 0
12:12 1022 30.18 851 25.13 0.2 32.4 34 -13.8 7.2 0 0
12:13 1022 30.18 851 25.13 0.4 32.7 33 -14 6.8 0 0
12:14 1022 30.18 851 25.13 0.5 32.9 32 -14.5 5.8 0 0
12:15 1022 30.18 851 25.13 0.4 32.8 32 -14.6 5.7 0 0
12:16 1022 30.18 851 25.13 0.4 32.7 31 -14.7 5.5 0 0
12:17 1022 30.18 851 25.13 0.5 32.8 36 -12.8 8.9 0 0
12:18 1022 30.18 851 25.13 0.7 33.2 31 -14.6 5.6 0 0
12:19 1022 30.18 851 25.13 0.7 33.3 33 -14 6.8 0 0
12:20 1022 30.18 851 25.13 0.8 33.5 33 -13.8 7.1 0 0
12:21 1022 30.18 851 25.13 0.9 33.6 31 -14.3 6.2 0 0
12:22 1021 30.15 851 25.13 1 33.9 35 -12.7 9.1 0 0
12:23 1021 30.15 851 25.13 1.2 34.2 32 -13.7 7.3 0 0
12:24 1022 30.18 851 25.13 1.2 34.2 30 -14.7 5.6 0 0
12:25 1022 30.18 851 25.13 0.9 33.7 31 -14.2 6.4 0 0
12:26 1021 30.15 851 25.13 0.8 33.5 32 -13.9 6.9 0 0
12:27 1021 30.15 851 25.13 0.9 33.6 33 -13.7 7.3 0 0
12:28 1021 30.15 851 25.13 0.9 33.6 30 -14.7 5.5 0 0
12:29 1021 30.15 851 25.13 0.8 33.5 30 -14.9 5.1 0 0
12:30 1021 30.15 851 25.13 0.8 33.5 33 -13.7 7.3 0 0
12:31 1021 30.15 851 25.13 1 33.7 33 -13.6 7.5 0 0
12:32 1021 30.15 851 25.13 1.2 34.1 31 -14.2 6.5 0 0
12:33 1021 30.15 851 25.13 1.3 34.4 37 -11.9 10.5 0 0
12:34 1021 30.15 851 25.13 1.5 34.6 31 -13.9 6.9 0 0
12:35 1021 30.15 851 25.13 1.4 34.5 37 -11.9 10.5 0 0
12:36 1021 30.15 851 25.13 1.2 34.2 34 -13 8.6 0 0
12:37 1021 30.15 851 25.13 1 33.8 32 -13.9 7 0 0
12:38 1021 30.15 851 25.13 1 33.8 32 -14.1 6.7 0 0
12:39 1021 30.15 851 25.13 1.1 34 40 -11.1 12.1 0 0
12:40 1021 30.15 851 25.13 1.3 34.4 31 -13.8 7.1 0 0
12:41 1021 30.15 851 25.13 1.5 34.7 36 -11.9 10.6 0 0
12:42 1021 30.15 850 25.1 1.5 34.7 32 -13.4 7.8 0 0
12:43 1021 30.15 851 25.13 1.5 34.7 31 -13.8 7.1 0 0
12:44 1021 30.15 851 25.13 1.3 34.4 30 -14.4 6.1 0 0
12:45 1021 30.15 850 25.1 1.2 34.2 33 -13.5 7.6 0 0
12:46 1021 30.15 850 25.1 1.1 34 35 -12.9 8.8 0 0
12:47 1021 30.15 850 25.1 1.1 34 34 -13.1 8.4 0 0
12:48 1021 30.15 850 25.1 1.3 34.3 32 -13.8 7.1 0 0
12:49 1021 30.15 850 25.1 1.4 34.5 29 -14.7 5.5 0 0
12:50 1021 30.15 850 25.1 1.5 34.7 31 -13.9 6.9 0 0
12:51 1021 30.15 850 25.1 1.7 35 32 -13.5 7.6 0 0
12:52 1021 30.15 850 25.1 1.7 35.1 38 -11.3 11.7 0 0
12:53 1021 30.15 850 25.1 1.8 35.2 33 -12.7 9.1 0 0
12:54 1021 30.15 850 25.1 1.7 35.1 33 -12.8 9 0 0
12:55 1021 30.15 850 25.1 1.6 34.8 31 -14 6.8 0 0
12:56 1021 30.15 850 25.1 1.5 34.7 30 -14.1 6.6 0 0
12:57 1021 30.15 850 25.1 1.6 34.9 31 -13.7 7.4 0 0
12:58 1021 30.15 850 25.1 1.7 35.1 31 -13.6 7.5 0 0
12:59 1021 30.15 850 25.1 1.8 35.3 35 -12.1 10.1 0 0
13:00 1021 30.15 850 25.1 1.9 35.4 33 -12.8 8.9 0 0
13:01 1021 30.15 850 25.1 1.9 35.5 34 -12.5 9.4 0 0
13:02 1021 30.15 850 25.1 1.9 35.4 29 -14.4 6.2 0 0
13:03 1021 30.15 850 25.1 1.7 35.1 31 -13.5 7.6 0 0
13:04 1021 30.15 850 25.1 1.6 34.9 31 -13.8 7.1 0 0
13:05 1021 30.15 850 25.1 1.6 34.9 32 -13.4 7.8 0 0
13:06 1021 30.15 850 25.1 1.6 34.8 29 -14.6 5.8 0 0
13:07 1021 30.15 850 25.1 1.6 34.8 34 -12.8 8.9 0 0
13:08 1021 30.15 850 25.1 1.7 35.1 28 -14.8 5.4 0 0
13:09 1021 30.15 850 25.1 1.8 35.3 34 -12.4 9.6 0 0
13:10 1021 30.15 850 25.1 1.9 35.5 30 -13.9 6.9 0 0
13:11 1021 30.15 850 25.1 2 35.5 35 -12 10.4 0 0
13:12 1021 30.15 850 25.1 2.2 35.9 31 -13.1 8.4 0 0
13:13 1021 30.15 850 25.1 2.2 36 31 -13.3 8.1 0 0
13:14 1021 30.15 850 25.1 2.1 35.9 30 -13.7 7.3 0 0
13:15 1021 30.15 850 25.1 2.1 35.8 31 -13.3 8.1 0 0
13:16 1021 30.15 850 25.1 2.2 35.9 32 -12.8 8.9 0 0
13:17 1021 30.15 850 25.1 2.2 35.9 29 -14.1 6.6 0 0
13:18 1021 30.15 850 25.1 2 35.5 28 -14.8 5.4 0 0
13:19 1021 30.15 850 25.1 1.9 35.4 30 -14 6.8 0 0
13:20 1021 30.15 850 25.1 1.8 35.3 31 -13.5 7.6 0 0
13:21 1021 30.15 850 25.1 1.9 35.4 27 -15.3 4.5 0 0
13:22 1021 30.15 850 25.1 1.9 35.4 28 -14.8 5.3 0 0
13:23 1021 30.15 850 25.1 1.9 35.4 29 -14.2 6.4 0 0
13:24 1021 30.15 850 25.1 2 35.6 29 -14.2 6.4 0 0
13:25 1021 30.15 850 25.1 2.1 35.8 32 -13.1 8.5 0 0
13:26 1021 30.15 850 25.1 2.1 35.8 27 -14.9 5.1 0 0
13:27 1021 30.15 850 25.1 2.1 35.8 29 -14.1 6.5 0 0
13:28 1021 30.15 850 25.1 2.2 35.9 30 -13.8 7.2 0 0
13:29 1021 30.15 850 25.1 2.3 36.1 30 -13.8 7.2 0 0
13:30 1021 30.15 850 25.1 2.3 36.1 31 -13.3 8 0 0
13:31 1021 30.15 850 25.1 2.3 36.2 30 -13.7 7.4 0 0
13:32 1021 30.15 850 25.1 2.5 36.4 27 -14.6 5.7 0 0
13:33 1021 30.15 850 25.1 2.4 36.3 28 -14.1 6.5 0 0
13:34 1021 30.15 850 25.1 2.3 36.1 29 -14.2 6.4 0 0
13:35 1021 30.15 850 25.1 2.2 36 29 -14.1 6.6 0 0
13:36 1021 30.15 850 25.1 2.2 36 28 -14.7 5.6 0 0
13:37 1021 30.15 850 25.1 2.2 36 27 -14.8 5.3 0 0
13:38 1021 30.15 850 25.1 2.2 36 28 -14.7 5.5 0 0
13:39 1021 30.15 850 25.1 2.1 35.8 28 -14.7 5.6 0 0
13:40 1021 30.15 850 25.1 2.1 35.8 30 -13.6 7.5 0 0
13:41 1021 30.15 850 25.1 2.2 35.9 25 -15.8 3.5 0 0
13:42 1021 30.15 850 25.1 2.2 36 24 -16.6 2.2 0 0
13:43 1021 30.15 850 25.1 2.3 36.1 28 -14.6 5.7 0 0
13:44 1021 30.15 850 25.1 2.4 36.3 27 -14.6 5.7 0 0
13:45 1021 30.15 850 25.1 2.4 36.4 27 -14.9 5.1 0 0
13:46 1021 30.15 850 25.1 2.5 36.4 30 -13.4 7.9 0 0
13:47 1021 30.15 850 25.1 2.8 37 27 -14.5 5.9 0 0
13:48 1021 30.15 850 25.1 2.8 37.1 28 -14.2 6.5 0 0
13:49 1021 30.15 850 25.1 2.7 36.9 28 -13.9 7.1 0 0
13:50 1021 30.15 850 25.1 2.9 37.2 27 -14.4 6.1 0 0
13:51 1021 30.15 850 25.1 3 37.4 29 -13.4 7.9 0 0
13:52 1021 30.15 850 25.1 3.1 37.5 24 -15.5 4.2 0 0
13:53 1021 30.15 850 25.1 2.9 37.2 23 -16.3 2.7 0 0
13:54 1021 30.15 850 25.1 2.7 36.8 25 -15.5 4.1 0 0
13:55 1021 30.15 850 25.1 2.7 36.9 24 -15.9 3.3 0 0
13:56 1021 30.15 850 25.1 2.8 37 24 -15.9 3.4 0 0
13:57 1021 30.15 850 25.1 2.8 37 23 -16.6 2.1 0 0
13:58 1021 30.15 850 25.1 2.6 36.7 23 -16.6 2.1 0 0
13:59 1020 30.12 850 25.1 2.6 36.7 26 -15.1 4.8 0 0
14:00 1021 30.15 850 25.1 2.8 37 27 -14.4 6 0 0
14:01 1020 30.12 850 25.1 2.9 37.2 25 -15.2 4.7 0 0
14:02 1020 30.12 850 25.1 2.9 37.3 32 -12.2 10 0 0
14:03 1020 30.12 850 25.1 3 37.4 27 -14.3 6.2 0 0
14:04 1020 30.12 850 25.1 3 37.3 24 -15.6 4 0 0
14:05 1020 30.12 850 25.1 2.8 37.1 31 -12.8 9 0 0
14:06 1020 30.12 850 25.1 2.9 37.3 28 -13.7 7.3 0 0
14:07 1020 30.12 850 25.1 3.1 37.5 25 -15.1 4.8 0 0
14:08 1020 30.12 850 25.1 3 37.5 26 -14.7 5.6 0 0
14:09 1020 30.12 850 25.1 3.1 37.6 30 -13 8.6 0 0
14:10 1020 30.12 850 25.1 3.3 37.9 25 -14.8 5.3 0 0
14:11 1020 30.12 850 25.1 3.2 37.8 27 -14.2 6.4 0 0
14:12 1020 30.12 850 25.1 3.2 37.7 27 -14.2 6.4 0 0
14:13 1020 30.12 850 25.1 3.1 37.7 26 -14.8 5.4 0 0
14:14 1020 30.12 850 25.1 3.1 37.7 26 -14.6 5.8 0 0
14:15 1020 30.12 850 25.1 3.3 37.9 32 -11.9 10.5 0 0
14:16 1020 30.12 850 25.1 3.5 38.3 27 -13.9 6.9 0 0
14:17 1020 30.12 850 25.1 3.6 38.4 31 -12.1 10.2 0 0
14:18 1020 30.12 850 25.1 3.6 38.5 28 -13.3 8.1 0 0
14:19 1020 30.12 850 25.1 3.5 38.4 33 -11.5 11.4 0 0
14:20 1020 30.12 850 25.1 3.5 38.2 26 -14.4 6 0 0
14:21 1020 30.12 850 25.1 3.4 38.1 25 -15 5 0 0
14:22 1020 30.12 850 25.1 3.2 37.8 27 -14.1 6.6 0 0
14:23 1020 30.12 850 25.1 3.2 37.7 27 -14 6.9 0 0
14:24 1020 30.12 850 25.1 3.3 37.9 25 -15.1 4.8 0 0
14:25 1020 30.12 850 25.1 3.4 38 24 -15.5 4.1 0 0
14:26 1020 30.12 849 25.07 3.4 38.1 28 -13.6 7.5 0 0
14:27 1020 30.12 850 25.1 3.3 38 25 -14.9 5.2 0 0
14:28 1020 30.12 849 25.07 3.3 37.9 26 -14.3 6.2 0 0
14:29 1020 30.12 849 25.07 3.3 37.9 24 -15.6 4 0 0
14:30 1020 30.12 849 25.07 3.3 37.9 26 -14.3 6.3 0 0
14:31 1020 30.12 849 25.07 3.4 38.1 28 -13.7 7.3 0 0
14:32 1020 30.12 849 25.07 3.5 38.3 29 -13 8.6 0 0
14:33 1020 30.12 849 25.07 3.7 38.6 28 -13.4 7.9 0 0
14:34 1020 30.12 849 25.07 3.8 38.8 24 -15.2 4.7 0 0
14:35 1020 30.12 849 25.07 3.8 38.8 24 -14.8 5.3 0 0
14:36 1020 30.12 849 25.07 3.7 38.7 27 -13.8 7.2 0 0
14:37 1020 30.12 849 25.07 3.8 38.8 29 -12.6 9.3 0 0
14:38 1020 30.12 849 25.07 4 39.2 29 -12.7 9.2 0 0
14:39 1020 30.12 849 25.07 4.1 39.4 26 -13.8 7.1 0 0
14:40 1020 30.12 849 25.07 4.1 39.4 24 -14.9 5.1 0 0
14:41 1020 30.12 849 25.07 4.1 39.4 24 -14.6 5.7 0 0
14:42 1020 30.12 849 25.07 4 39.2 25 -14.6 5.8 0 0
14:43 1020 30.12 849 25.07 4 39.3 25 -14.6 5.8 0 0
14:44 1020 30.12 849 25.07 4.1 39.4 30 -12.2 10.1 0 0
14:45 1020 30.12 849 25.07 4.3 39.7 30 -11.7 10.9 0 0
14:46 1020 30.12 849 25.07 4.6 40.3 27 -12.9 8.8 0 0
14:47 1020 30.12 849 25.07 4.8 40.6 23 -14.9 5.2 0 0
14:48 1020 30.12 849 25.07 4.6 40.4 25 -13.8 7.1 0 0
14:49 1020 30.12 849 25.07 4.5 40.2 25 -14 6.7 0 0
14:50 1020 30.12 849 25.07 4.3 39.8 29 -12.3 9.8 0 0
14:51 1020 30.12 849 25.07 4.3 39.7 26 -13.7 7.3 0 0
14:52 1020 30.12 849 25.07 4.1 39.4 28 -12.8 9 0 0
14:53 1020 30.12 849 25.07 4.2 39.5 26 -13.5 7.7 0 0
14:54 1020 30.12 849 25.07 4.1 39.4 25 -14.4 6.1 0 0
14:55 1020 30.12 849 25.07 4.1 39.4 29 -12.4 9.6 0 0
14:56 1020 30.12 849 25.07 4.2 39.5 25 -14 6.8 0 0
14:57 1020 30.12 849 25.07 4.3 39.7 27 -13.3 8.1 0 0
14:58 1020 30.12 849 25.07 4.3 39.7 26 -13.8 7.1 0 0
14:59 1020 30.12 849 25.07 4.2 39.6 24 -14.6 5.7 0 0
15:00 1020 30.12 849 25.07 4.2 39.5 23 -15.2 4.6 0 0
15:01 1020 30.12 849 25.07 4.2 39.5 27 -13.2 8.2 0 0
15:02 1020 30.12 849 25.07 4.3 39.7 24 -14.5 5.8 0 0
15:03 1020 30.12 849 25.07 4.4 39.9 27 -13 8.6 0 0
15:04 1020 30.12 849 25.07 4.5 40.1 25 -14 6.8 0 0
15:05 1020 30.12 849 25.07 4.5 40.2 24 -14.2 6.4 0 0
15:06 1020 30.12 849 25.07 4.5 40 25 -14 6.7 0 0
15:07 1020 30.12 849 25.07 4.4 39.9 22 -15.4 4.3 0 0
15:08 1020 30.12 849 25.07 4.3 39.7 25 -14.3 6.2 0 0
15:09 1020 30.12 849 25.07 4.2 39.6 24 -14.7 5.6 0 0
15:10 1020 30.12 849 25.07 4.1 39.4 26 -13.6 7.6 0 0
15:11 1020 30.12 849 25.07 4.1 39.5 24 -14.8 5.4 0 0
15:12 1020 30.12 849 25.07 4.2 39.6 27 -13.1 8.5 0 0
15:13 1020 30.12 849 25.07 4.3 39.7 25 -13.9 7 0 0
15:14 1020 30.12 849 25.07 4.4 39.9 25 -14.2 6.5 0 0
15:15 1020 30.12 849 25.07 4.3 39.8 25 -14.1 6.5 0 0
15:16 1020 30.12 849 25.07 4.3 39.8 27 -13.2 8.3 0 0
15:17 1020 30.12 849 25.07 4.3 39.8 26 -13.7 7.4 0 0
15:18 1020 30.12 849 25.07 4.4 40 28 -12.7 9.1 0 0
15:19 1020 30.12 849 25.07 4.5 40.1 26 -13.7 7.4 0 0
15:20 1020 30.12 849 25.07 4.6 40.3 28 -12.5 9.5 0 0
15:21 1020 30.12 849 25.07 4.7 40.5 28 -12.4 9.7 0 0
15:22 1020 30.12 849 25.07 4.8 40.6 31 -11.1 11.9 0 0
15:23 1020 30.12 849 25.07 4.9 40.8 26 -13 8.6 0 0
15:24 1020 30.12 849 25.07 4.9 40.8 27 -12.8 9 0 0
15:25 1020 30.12 849 25.07 4.8 40.7 28 -12 10.4 0 0
15:26 1020 30.12 849 25.07 4.8 40.7 25 -13.6 7.5 0 0
15:27 1020 30.12 849 25.07 4.7 40.5 28 -12.4 9.8 0 0
15:28 1020 30.12 849 25.07 4.7 40.5 25 -13.7 7.3 0 0
15:29 1020 30.12 849 25.07 4.8 40.6 22 -15 5 0 0
15:30 1020 30.12 849 25.07 4.7 40.5 25 -13.7 7.3 0 0
15:31 1020 30.12 849 25.07 4.6 40.3 23 -14.9 5.2 0 0
15:32 1020 30.12 849 25.07 4.4 40 23 -15 4.9 0 0
15:33 1020 30.12 849 25.07 4.4 39.8 26 -13.4 8 0 0
15:34 1020 30.12 849 25.07 4.4 39.9 24 -14.6 5.8 0 0
15:35 1020 30.12 849 25.07 4.4 39.9 27 -13 8.7 0 0
15:36 1020 30.12 849 25.07 4.6 40.2 27 -12.7 9.2 0 0
15:37 1020 30.12 849 25.07 4.7 40.5 25 -13.6 7.5 0 0
15:38 1020 30.12 849 25.07 4.6 40.3 24 -14.3 6.2 0 0
15:39 1020 30.12 849 25.07 4.5 40.1 25 -13.9 7 0 0
15:40 1020 30.12 849 25.07 4.6 40.2 25 -13.7 7.3 0 0
15:41 1020 30.12 849 25.07 4.6 40.2 26 -13.5 7.6 0 0
15:42 1020 30.12 849 25.07 4.6 40.2 27 -12.9 8.8 0 0
15:43 1020 30.12 849 25.07 4.6 40.3 25 -13.7 7.3 0 0
15:44 1019 30.09 849 25.07 4.7 40.5 28 -12.3 9.8 0 0
15:45 1019 30.09 849 25.07 4.8 40.7 23 -14.6 5.7 0 0
15:46 1019 30.09 849 25.07 4.8 40.6 24 -13.9 6.9 0 0
15:47 1019 30.09 849 25.07 4.8 40.6 24 -14.4 6.1 0 0
15:48 1019 30.09 849 25.07 4.7 40.5 26 -13.2 8.3 0 0
15:49 1019 30.09 849 25.07 4.8 40.6 27 -12.7 9.1 0 0
15:50 1019 30.09 849 25.07 4.8 40.7 25 -13.6 7.6 0 0
15:51 1019 30.09 849 25.07 5 40.9 25 -13.5 7.8 0 0
15:52 1019 30.09 849 25.07 5 41 26 -12.9 8.8 0 0
15:53 1019 30.09 849 25.07 5.1 41.2 27 -12.6 9.2 0 0
15:54 1019 30.09 849 25.07 5.2 41.4 26 -12.8 8.9 0 0
15:55 1019 30.09 849 25.07 5.3 41.5 25 -13.1 8.5 0 0
15:56 1019 30.09 849 25.07 5.2 41.4 27 -12.5 9.5 0 0
15:57 1019 30.09 849 25.07 5.2 41.3 25 -13.1 8.5 0 0
15:58 1019 30.09 849 25.07 5.2 41.3 25 -13.6 7.6 0 0
15:59 1019 30.09 849 25.07 5.2 41.4 24 -14 6.8 0 0
16:00 1019 30.09 849 25.07 5.3 41.6 24 -13.5 7.7 0 0
16:01 1019 30.09 849 25.07 5.5 41.9 30 -10.9 12.4 0 0
16:02 1019 30.09 849 25.07 5.7 42.2 24 -13.3 8.1 0 0
16:03 1019 30.09 849 25.07 5.7 42.2 21 -14.9 5.2 0 0
16:04 1019 30.09 849 25.07 5.7 42.2 23 -14.1 6.6 0 0
16:05 1019 30.09 849 25.07 5.6 42.1 26 -12.5 9.6 0 0
16:06 1019 30.09 849 25.07 5.6 42.1 25 -12.7 9.1 0 0
16:07 1019 30.09 849 25.07 5.6 42.1 24 -13.2 8.2 0 0
16:08 1019 30.09 849 25.07 5.6 42.1 25 -13 8.5 0 0
16:09 1019 30.09 849 25.07 5.5 41.9 27 -11.9 10.6 0 0
16:10 1019 30.09 849 25.07 5.4 41.8 25 -13.3 8.1 0 0
16:11 1019 30.09 849 25.07 5.3 41.5 30 -10.8 12.6 0 0
16:12 1019 30.09 849 25.07 5.2 41.3 29 -11.5 11.3 0 0
16:13 1019 30.09 849 25.07 5.1 41.2 29 -11.5 11.3 0 0
16:14 1019 30.09 849 25.07 5.1 41.2 26 -13 8.6 0 0
16:15 1019 30.09 849 25.07 5.2 41.3 29 -11.4 11.5 0 0
16:16 1019 30.09 849 25.07 5.4 41.7 26 -12.8 9 0 0
16:17 1019 30.09 848 25.04 5.4 41.8 24 -13.4 7.8 0 0
16:18 1019 30.09 848 25.04 5.5 41.9 22 -14.5 5.8 0 0
16:19 1019 30.09 848 25.04 5.4 41.8 28 -11.6 11 0 0
16:20 1019 30.09 848 25.04 5.5 41.9 23 -14.4 6.2 0 0
16:21 1019 30.09 848 25.04 5.4 41.7 23 -14.3 6.2 0 0
16:22 1019 30.09 848 25.04 5.4 41.7 23 -14.1 6.7 0 0
16:23 1019 30.09 848 25.04 5.4 41.7 25 -13.2 8.3 0 0
16:24 1019 30.09 848 25.04 5.5 41.9 24 -13.7 7.4 0 0
16:25 1019 30.09 848 25.04 5.5 41.9 23 -14 6.8 0 0
16:26 1019 30.09 848 25.04 5.4 41.8 23 -14.3 6.2 0 0
16:27 1019 30.09 848 25.04 5.4 41.7 24 -13.7 7.3 0 0
16:28 1019 30.09 848 25.04 5.4 41.6 27 -12 10.4 0 0
16:29 1019 30.09 848 25.04 5.4 41.8 28 -11.8 10.8 0 0
16:30 1019 30.09 848 25.04 5.6 42 31 -10.3 13.4 0 0
16:31 1019 30.09 848 25.04 5.8 42.4 25 -12.9 8.8 0 0
16:32 1019 30.09 848 25.04 5.9 42.6 26 -12.4 9.7 0 0
16:33 1019 30.09 848 25.04 5.8 42.5 25 -13 8.6 0 0
16:34 1019 30.09 848 25.04 5.8 42.4 28 -11.4 11.5 0 0
16:35 1019 30.09 848 25.04 5.9 42.6 24 -13.2 8.2 0 0
16:36 1019 30.09 848 25.04 5.8 42.4 22 -14.2 6.4 0 0
16:37 1019 30.09 848 25.04 5.6 42.1 26 -12.5 9.4 0 0
16:38 1019 30.09 848 25.04 5.6 42.1 24 -13.6 7.5 0 0
16:39 1019 30.09 848 25.04 5.6 42.1 24 -13.6 7.5 0 0
16:40 1019 30.09 848 25.04 5.6 42.1 29 -11 12.2 0 0
16:41 1019 30.09 848 25.04 5.9 42.5 27 -11.7 11 0 0
16:42 1019 30.09 848 25.04 5.8 42.4 30 -10.7 12.8 0 0
16:43 1019 30.09 848 25.04 5.9 42.5 31 -10.2 13.6 0 0
16:44 1019 30.09 848 25.04 6 42.8 22 -14 6.9 0 0
16:45 1019 30.09 848 25.04 6 42.7 28 -11.2 11.8 0 0
16:46 1019 30.09 848 25.04 6.1 42.9 28 -11.2 11.8 0 0
16:47 1019 30.09 848 25.04 6.3 43.3 25 -12.2 10 0 0
16:48 1019 30.09 848 25.04 6.3 43.3 24 -12.9 8.9 0 0
16:49 1019 30.09 848 25.04 6.1 43 24 -13 8.5 0 0
16:50 1019 30.09 848 25.04 6 42.7 24 -13.2 8.3 0 0
16:51 1019 30.09 848 25.04 5.9 42.6 23 -13.6 7.5 0 0
16:52 1019 30.09 848 25.04 5.9 42.6 24 -13 8.5 0 0
16:53 1019 30.09 848 25.04 6 42.8 19 -16.1 3.1 0 0
16:54 1019 30.09 848 25.04 5.9 42.7 20 -15.5 4.1 0 0
16:55 1019 30.09 848 25.04 5.9 42.6 24 -13 8.6 0 0
16:56 1019 30.09 848 25.04 5.8 42.5 20 -15.5 4.1 0 0
16:57 1019 30.09 848 25.04 5.8 42.5 21 -14.8 5.3 0 0
16:58 1019 30.09 848 25.04 5.8 42.5 22 -14.3 6.3 0 0
16:59 1019 30.09 848 25.04 5.8 42.5 24 -13.4 7.8 0 0
17:00 1019 30.09 848 25.04 5.9 42.6 26 -12.1 10.2 0 0
17:01 1019 30.09 848 25.04 5.9 42.7 21 -14.7 5.5 0 0
17:02 1019 30.09 848 25.04 5.9 42.5 25 -12.7 9.1 0 0
17:03 1019 30.09 848 25.04 5.8 42.5 23 -14 6.8 0 0
17:04 1019 30.09 848 25.04 5.9 42.7 23 -14 6.9 0 0
17:05 1019 30.09 848 25.04 5.9 42.6 21 -14.8 5.4 0 0
17:06 1019 30.09 848 25.04 5.9 42.6 20 -15.7 3.8 0 0
17:07 1019 30.09 848 25.04 5.8 42.5 22 -14.2 6.5 0 0
17:08 1019 30.09 848 25.04 5.9 42.6 25 -12.7 9.1 0 0
17:09 1019 30.09 848 25.04 5.9 42.6 24 -13.2 8.3 0 0
17:10 1019 30.09 848 25.04 5.7 42.3 23 -13.7 7.3 0 0
17:11 1019 30.09 848 25.04 5.7 42.2 22 -14.3 6.3 0 0
17:12 1019 30.09 848 25.04 5.7 42.2 24 -13.6 7.5 0 0
17:13 1019 30.09 848 25.04 5.7 42.3 24 -13.2 8.3 0 0
17:14 1019 30.09 848 25.04 5.7 42.2 24 -13.4 7.9 0 0
17:15 1019 30.09 848 25.04 5.8 42.4 27 -11.8 10.8 0 0
17:16 1019 30.09 848 25.04 5.8 42.5 27 -11.9 10.5 0 0
17:17 1019 30.09 848 25.04 6 42.7 27 -11.8 10.8 0 0
17:18 1019 30.09 848 25.04 6.1 42.9 26 -12.3 9.9 0 0
17:19 1019 30.09 848 25.04 6 42.9 23 -13.6 7.5 0 0
17:20 1019 30.09 848 25.04 5.8 42.5 26 -12.3 9.9 0 0
17:21 1019 30.09 848 25.04 5.7 42.3 22 -14.3 6.3 0 0
17:22 1019 30.09 848 25.04 5.7 42.2 20 -15.5 4 0 0
17:23 1019 30.09 848 25.04 5.6 42 22 -14.5 5.9 0 0
17:24 1019 30.09 848 25.04 5.6 42.1 23 -14.1 6.6 0 0
17:25 1019 30.09 848 25.04 5.7 42.2 21 -14.9 5.3 0 0
17:26 1019 30.09 848 25.04 5.7 42.3 22 -14.6 5.7 0 0
17:27 1019 30.09 848 25.04 5.7 42.3 24 -13.1 8.4 0 0
17:28 1019 30.09 848 25.04 5.8 42.4 24 -13.5 7.7 0 0
17:29 1019 30.09 848 25.04 5.8 42.5 25 -12.8 8.9 0 0
17:30 1019 30.09 848 25.04 5.9 42.5 19 -16 3.2 0 0
17:31 1019 30.09 848 25.04 5.8 42.5 24 -13.2 8.2 0 0
17:32 1019 30.09 848 25.04 6 42.7 25 -12.6 9.3 0 0
17:33 1019 30.09 848 25.04 6.1 43 23 -13.9 7.1 0 0
17:34 1019 30.09 848 25.04 6.1 42.9 21 -14.7 5.5 0 0
17:35 1019 30.09 848 25.04 6 42.8 21 -14.6 5.7 0 0
17:36 1019 30.09 848 25.04 6 42.8 23 -13.5 7.6 0 0
17:37 1019 30.09 848 25.04 6 42.8 19 -15.7 3.7 0 0
17:38 1019 30.09 848 25.04 5.9 42.6 22 -14.2 6.4 0 0
17:39 1019 30.09 848 25.04 5.8 42.4 21 -14.9 5.2 0 0
17:40 1019 30.09 848 25.04 5.8 42.4 19 -16.5 2.4 0 0
17:41 1019 30.09 848 25.04 5.7 42.3 20 -15.5 4 0 0
17:42 1019 30.09 848 25.04 5.8 42.5 21 -14.7 5.5 0 0
17:43 1019 30.09 848 25.04 6 42.7 20 -15.7 3.8 0 0
17:44 1019 30.09 848 25.04 6.1 42.9 19 -15.9 3.4 0 0
17:45 1019 30.09 848 25.04 6 42.9 22 -14.1 6.6 0 0
17:46 1019 30.09 848 25.04 6 42.9 23 -13.8 7.2 0 0
17:47 1019 30.09 848 25.04 6 42.9 22 -14.1 6.6 0 0
17:48 1019 30.09 848 25.04 6 42.9 23 -13.5 7.7 0 0
17:49 1019 30.09 848 25.04 6.1 42.9 23 -13.5 7.8 0 0
17:50 1019 30.09 848 25.04 6.1 42.9 24 -13.1 8.5 0 0
17:51 1019 30.09 848 25.04 6 42.7 24 -13.2 8.2 0 0
17:52 1019 30.09 848 25.04 5.8 42.4 24 -13.1 8.4 0 0
17:53 1019 30.09 848 25.04 5.7 42.3 25 -12.9 8.7 0 0
17:54 1019 30.09 848 25.04 5.6 42.1 22 -14.8 5.3 0 0
17:55 1019 30.09 848 25.04 5.5 41.9 21 -15 5.1 0 0
17:56 1019 30.09 848 25.04 5.5 41.9 24 -13.4 7.9 0 0
17:57 1019 30.09 848 25.04 5.5 42 21 -15.3 4.5 0 0
17:58 1019 30.09 848 25.04 5.5 41.9 19 -16.2 2.8 0 0
17:59 1019 30.09 848 25.04 5.5 41.9 23 -14.3 6.2 0 0
18:00 1019 30.09 848 25.04 5.6 42 28 -11.7 11 0 0
18:01 1019 30.09 848 25.04 5.7 42.2 23 -13.8 7.2 0 0
18:02 1019 30.09 848 25.04 5.7 42.2 21 -14.9 5.2 0 0
18:03 1019 30.09 848 25.04 5.7 42.2 24 -13.6 7.5 0 0
18:04 1019 30.09 848 25.04 5.7 42.3 21 -14.9 5.2 0 0
18:05 1019 30.09 848 25.04 5.7 42.2 22 -14.5 6 0 0
18:06 1019 30.09 848 25.04 5.7 42.3 26 -12.2 10 0 0
18:07 1019 30.09 848 25.04 5.8 42.4 21 -14.9 5.2 0 0
18:08 1019 30.09 848 25.04 5.7 42.3 23 -14 6.8 0 0
18:09 1019 30.09 848 25.04 5.7 42.3 22 -14.3 6.3 0 0
18:10 1019 30.09 848 25.04 5.7 42.3 23 -13.8 7.2 0 0
18:11 1019 30.09 848 25.04 5.7 42.2 23 -13.9 6.9 0 0
18:12 1019 30.09 848 25.04 5.6 42.2 20 -15.6 3.9 0 0
18:13 1019 30.09 848 25.04 5.6 42 20 -15.6 3.9 0 0
18:14 1019 30.09 848 25.04 5.5 42 20 -15.6 3.9 0 0
18:15 1019 30.09 848 25.04 5.6 42.1 22 -14.4 6 0 0
18:16 1019 30.09 848 25.04 5.7 42.2 20 -15.9 3.4 0 0
18:17 1019 30.09 848 25.04 5.7 42.2 20 -15.5 4.1 0 0
18:18 1019 30.09 848 25.04 5.8 42.4 23 -14 6.7 0 0
18:19 1018 30.06 848 25.04 5.9 42.5 26 -12.5 9.5 0 0
18:20 1018 30.06 848 25.04 5.9 42.6 27 -11.7 10.9 0 0
18:21 1018 30.06 848 25.04 5.8 42.4 21 -14.8 5.4 0 0
18:22 1018 30.06 848 25.04 5.7 42.2 20 -15.6 3.9 0 0
18:23 1018 30.06 848 25.04 5.6 42.1 23 -14.1 6.6 0 0
18:24 1018 30.06 848 25.04 5.5 42 24 -13.8 7.2 0 0
18:25 1018 30.06 848 25.04 5.5 41.9 22 -14.7 5.5 0 0
18:26 1018 30.06 848 25.04 5.5 41.9 26 -12.4 9.7 0 0
18:27 1018 30.06 848 25.04 5.5 41.9 26 -12.4 9.7 0 0
18:28 1018 30.06 848 25.04 5.5 41.8 24 -13.5 7.7 0 0
18:29 1018 30.06 848 25.04 5.4 41.8 28 -11.8 10.8 0 0
18:30 1018 30.06 848 25.04 5.4 41.8 27 -12.2 10 0 0
18:31 1018 30.06 848 25.04 5.4 41.7 27 -12 10.4 0 0
18:32 1018 30.06 848 25.04 5.4 41.7 25 -13.1 8.4 0 0
18:33 1018 30.06 848 25.04 5.4 41.7 28 -11.6 11.2 0 0
18:34 1018 30.06 848 25.04 5.3 41.6 29 -11.4 11.5 0 0
18:35 1018 30.06 848 25.04 5.2 41.4 21 -15.6 3.9 0 0
18:36 1018 30.06 848 25.04 5.2 41.4 24 -13.7 7.4 0 0
18:37 1018 30.06 848 25.04 5.1 41.2 26 -13 8.6 0 0
18:38 1018 30.06 848 25.04 5 41 26 -13 8.6 0 0
18:39 1018 30.06 848 25.04 4.9 40.8 29 -11.6 11 0 0
18:40 1018 30.06 848 25.04 4.8 40.6 29 -12 10.5 0 0
18:41 1018 30.06 848 25.04 4.6 40.3 31 -11.1 12.1 0 0
18:42 1018 30.06 848 25.04 4.5 40.1 32 -10.7 12.7 0 0
18:43 1018 30.06 848 25.04 4.4 39.9 33 -10.4 13.3 0 0
18:44 1018 30.06 848 25.04 4.3 39.7 36 -9.6 14.8 0 0
18:45 1018 30.06 848 25.04 4.3 39.8 33 -10.4 13.2 0 0
18:46 1018 30.06 848 25.04 4.3 39.7 36 -9.7 14.6 0 0
18:47 1018 30.06 848 25.04 4.3 39.8 33 -10.7 12.8 0 0
18:48 1018 30.06 848 25.04 4.3 39.7 33 -10.6 12.8 0 0
18:49 1018 30.06 848 25.04 4.3 39.7 36 -9.4 15 0 0
18:50 1018 30.06 848 25.04 4.2 39.6 35 -9.8 14.3 0 0
18:51 1018 30.06 848 25.04 4.2 39.5 35 -9.8 14.3 0 0
18:52 1018 30.06 848 25.04 4.1 39.3 37 -9.4 15 0 0
18:53 1018 30.06 848 25.04 3.9 39.1 38 -9.2 15.5 0 0
18:54 1018 30.06 848 25.04 3.8 38.8 38 -9.2 15.5 0 0
18:55 1018 30.06 848 25.04 3.7 38.7 40 -8.8 16.2 0 0
18:56 1018 30.06 848 25.04 3.6 38.4 41 -8.6 16.5 0 0
18:57 1018 30.06 848 25.04 3.4 38.2 41 -8.6 16.5 0 0
18:58 1018 30.06 848 25.04 3.3 37.9 42 -8.5 16.7 0 0
18:59 1018 30.06 848 25.04 3.1 37.6 43 -8.4 16.9 0 0
19:00 1018 30.06 848 25.04 2.9 37.3 42 -8.8 16.1 0 0
19:01 1018 30.06 848 25.04 2.8 37 41 -9.2 15.4 0 0
19:02 1018 30.06 848 25.04 2.6 36.7 43 -8.7 16.3 0 0
19:03 1018 30.06 848 25.04 2.4 36.3 44 -8.7 16.3 0 0
19:04 1018 30.06 848 25.04 2.3 36.1 43 -9 15.9 0 0
19:05 1018 30.06 848 25.04 2.2 36 42 -9.4 15.1 0 0
19:06 1018 30.06 848 25.04 2.2 36 41 -9.8 14.4 0 0
19:07 1018 30.06 848 25.04 2.3 36.1 40 -10.1 13.7 0 0
19:08 1018 30.06 848 25.04 2.3 36.1 39 -10.2 13.6 0 0
19:09 1018 30.06 847 25.01 2.4 36.2 37 -11 12.1 0 0
19:10 1018 30.06 848 25.04 2.5 36.5 39 -10 14.1 0 0
19:11 1018 30.06 848 25.04 2.4 36.4 40 -9.7 14.6 0 0
19:12 1018 30.06 847 25.01 2.5 36.4 37 -11 12.3 0 0
19:13 1018 30.06 848 25.04 2.5 36.5 37 -10.8 12.6 0 0
19:14 1018 30.06 848 25.04 2.5 36.5 41 -9.4 15.1 0 0
19:15 1018 30.06 848 25.04 2.2 35.9 41 -9.9 14.2 0 0
19:16 1018 30.06 848 25.04 2 35.6 41 -10 14 0 0
19:17 1018 30.06 848 25.04 1.9 35.5 41 -9.9 14.3 0 0
19:18 1018 30.06 848 25.04 1.8 35.2 43 -9.5 15 0 0
19:19 1018 30.06 848 25.04 1.6 34.8 42 -10.1 13.8 0 0
19:20 1018 30.06 848 25.04 1.5 34.7 43 -9.9 14.2 0 0
19:21 1018 30.06 848 25.04 1.3 34.4 45 -9.5 15 0 0
19:22 1018 30.06 848 25.04 1.1 34 44 -9.7 14.5 0 0
19:23 1018 30.06 847 25.01 1 33.8 44 -9.9 14.2 0 0
19:24 1018 30.06 848 25.04 0.9 33.7 44 -10.1 13.7 0 0
19:25 1018 30.06 847 25.01 0.9 33.6 44 -10 14 0 0
19:26 1018 30.06 847 25.01 0.9 33.5 46 -9.6 14.8 0 0
19:27 1018 30.06 847 25.01 0.7 33.2 47 -9.5 14.9 0 0
19:28 1018 30.06 847 25.01 0.5 33 48 -9.3 15.2 0 0
19:29 1018 30.06 847 25.01 0.4 32.8 46 -9.8 14.4 0 0
19:30 1018 30.06 847 25.01 0.4 32.7 48 -9.5 14.9 0 0
19:31 1018 30.06 847 25.01 0.1 32.2 49 -9.3 15.3 0 0
19:32 1018 30.06 847 25.01 -0.1 31.9 50 -9.2 15.5 0 0
19:33 1018 30.06 847 25.01 -0.2 31.6 51 -9.3 15.3 0 0
19:34 1018 30.06 847 25.01 -0.4 31.4 52 -9 15.9 0 0
19:35 1018 30.06 847 25.01 -0.4 31.2 53 -8.9 16 0 0
19:36 1018 30.06 847 25.01 -0.5 31 55 -8.6 16.5 0 0
19:37 1018 30.06 847 25.01 -0.7 30.8 55 -8.6 16.6 0 0
19:38 1018 30.06 847 25.01 -0.8 30.6 56 -8.6 16.5 0 0
19:39 1018 30.06 847 25.01 -0.9 30.4 55 -8.9 16 0 0
19:40 1018 30.06 847 25.01 -0.9 30.3 56 -8.7 16.3 0 0
19:41 1018 30.06 847 25.01 -1 30.1 56 -8.7 16.4 0 0
19:42 1018 30.06 847 25.01 -1.3 29.7 56 -8.9 15.9 0 0
19:43 1018 30.06 847 25.01 -1.5 29.3 56 -9.1 15.6 0 0
19:44 1018 30.06 847 25.01 -1.6 29.2 57 -9 15.8 0 0
19:45 1018 30.06 847 25.01 -1.7 29 59 -8.6 16.5 0 0
19:46 1018 30.06 847 25.01 -1.8 28.7 61 -8.4 16.9 0 0
19:47 1018 30.06 847 25.01 -2 28.4 63 -8.2 17.3 0 0
19:48 1018 30.06 847 25.01 -2.1 28.2 64 -8.1 17.4 0 0
19:49 1018 30.06 847 25.01 -2.3 27.9 65 -8 17.6 0 0
19:50 1018 30.06 847 25.01 -2.4 27.7 66 -8 17.7 0 0
19:51 1018 30.06 847 25.01 -2.6 27.3 66 -8.1 17.5 0 0
19:52 1018 30.06 847 25.01 -2.8 26.9 67 -8 17.6 0 0
19:53 1018 30.06 847 25.01 -3 26.6 69 -8 17.6 0 0
19:54 1018 30.06 847 25.01 -3 26.5 68 -8.1 17.4 0 0
19:55 1018 30.06 847 25.01 -3 26.6 68 -8.1 17.3 0 0
19:56 1018 30.06 847 25.01 -3 26.6 69 -8 17.6 0 0
19:57 1018 30.06 847 25.01 -3 26.6 70 -7.8 18 0 0
19:58 1018 30.06 847 25.01 -3 26.7 70 -7.6 18.3 0 0
19:59 1018 30.06 847 25.01 -2.9 26.8 70 -7.6 18.3 0 0
20:00 1018 30.06 847 25.01 -2.6 27.3 69 -7.5 18.5 0 0
20:01 1018 30.06 847 25.01 -2.5 27.5 68 -7.6 18.3 0 0
20:02 1018 30.06 847 25.01 -2.4 27.7 68 -7.6 18.3 0 0
20:03 1018 30.06 847 25.01 -2.5 27.5 67 -7.7 18.1 0 0
20:04 1018 30.06 847 25.01 -2.6 27.3 68 -7.8 18 0 0
20:05 1018 30.06 847 25.01 -2.7 27.2 67 -7.9 17.7 0 0
20:06 1018 30.06 847 25.01 -2.7 27.1 67 -8 17.7 0 0
20:07 1018 30.06 847 25.01 -2.8 26.9 67 -8 17.5 0 0
20:08 1018 30.06 847 25.01 -2.9 26.8 67 -8.1 17.4 0 0
20:09 1018 30.06 847 25.01 -3 26.7 68 -8.1 17.4 0 0
20:10 1018 30.06 847 25.01 -3 26.6 68 -8.2 17.3 0 0
20:11 1018 30.06 847 25.01 -2.9 26.7 67 -8.2 17.2 0 0
20:12 1018 30.06 847 25.01 -2.9 26.9 66 -8.3 17.1 0 0
20:13 1018 30.06 847 25.01 -2.8 27 66 -8.2 17.3 0 0
20:14 1018 30.06 847 25.01 -2.7 27.1 67 -8 17.6 0 0
20:15 1018 30.06 847 25.01 -2.7 27.2 67 -8 17.6 0 0
20:16 1018 30.06 847 25.01 -2.7 27.2 66 -8.1 17.4 0 0
20:17 1018 30.06 847 25.01 -2.7 27.1 66 -8.2 17.2 0 0
20:18 1018 30.06 847 25.01 -2.7 27.1 66 -8.3 17 0 0
20:19 1018 30.06 847 25.01 -2.7 27.1 65 -8.4 16.9 0 0
20:20 1018 30.06 847 25.01 -2.7 27.1 65 -8.4 17 0 0
20:21 1018 30.06 847 25.01 -2.7 27.1 65 -8.4 16.9 0 0
20:22 1018 30.06 847 25.01 -2.8 27 66 -8.3 17 0 0
20:23 1018 30.06 847 25.01 -2.7 27.1 65 -8.4 16.8 0 0
20:24 1018 30.06 847 25.01 -2.7 27.1 65 -8.4 16.9 0 0
20:25 1018 30.06 847 25.01 -2.7 27.2 65 -8.4 16.9 0 0
20:26 1018 30.06 847 25.01 -2.7 27.1 65 -8.3 17 0 0
20:27 1018 30.06 847 25.01 -2.8 27 66 -8.2 17.2 0 0
20:28 1018 30.06 847 25.01 -3 26.6 67 -8.2 17.2 0 0
20:29 1018 30.06 847 25.01 -3.1 26.4 68 -8.2 17.3 0 0
20:30 1018 30.06 847 25.01 -3.3 26.1 69 -8.2 17.2 0 0
20:31 1018 30.06 847 25.01 -3.3 26 69 -8.2 17.2 0 0
20:32 1018 30.06 847 25.01 -3.4 25.9 70 -8.1 17.4 0 0
20:33 1018 30.06 847 25.01 -3.5 25.8 71 -8.1 17.5 0 0
20:34 1018 30.06 847 25.01 -3.6 25.6 70 -8.2 17.2 0 0
20:35 1018 30.06 847 25.01 -3.6 25.6 70 -8.4 16.9 0 0
20:36 1018 30.06 847 25.01 -3.6 25.6 69 -8.4 16.9 0 0
20:37 1018 30.06 847 25.01 -3.7 25.4 70 -8.4 16.8 0 0
20:38 1018 30.06 847 25.01 -3.7 25.3 70 -8.4 16.8 0 0
20:39 1018 30.06 847 25.01 -3.8 25.1 71 -8.3 17 0 0
20:40 1018 30.06 847 25.01 -3.9 25 71 -8.4 16.8 0 0
20:41 1018 30.06 847 25.01 -3.9 25 71 -8.4 17 0 0
20:42 1018 30.06 847 25.01 -3.9 24.9 71 -8.4 16.8 0 0
20:43 1018 30.06 847 25.01 -3.8 25.1 70 -8.5 16.7 0 0
20:44 1018 30.06 847 25.01 -3.9 25 71 -8.4 16.8 0 0
20:45 1018 30.06 847 25.01 -3.8 25.1 71 -8.4 16.9 0 0
20:46 1018 30.06 847 25.01 -3.7 25.3 70 -8.5 16.8 0 0
20:47 1018 30.06 847 25.01 -3.6 25.5 69 -8.5 16.7 0 0
20:48 1018 30.06 847 25.01 -3.5 25.7 69 -8.4 16.8 0 0
20:49 1018 30.06 847 25.01 -3.4 25.9 68 -8.5 16.6 0 0
20:50 1018 30.06 847 25.01 -3.3 26.1 67 -8.5 16.7 0 0
20:51 1018 30.06 847 25.01 -3.3 26 69 -8.3 17 0 0
20:52 1018 30.06 847 25.01 -3.4 25.9 69 -8.3 17 0 0
20:53 1018 30.06 847 25.01 -3.4 25.8 68 -8.5 16.6 0 0
20:54 1018 30.06 847 25.01 -3.4 25.9 68 -8.6 16.6 0 0
20:55 1018 30.06 847 25.01 -3.3 26 67 -8.6 16.6 0 0
20:56 1018 30.06 847 25.01 -3.3 26.1 66 -8.7 16.3 0 0
20:57 1018 30.06 847 25.01 -3.2 26.2 66 -8.7 16.3 0 0
20:58 1018 30.06 847 25.01 -3.2 26.2 66 -8.7 16.4 0 0
20:59 1018 30.06 847 25.01 -3.2 26.2 67 -8.6 16.5 0 0
21:00 1018 30.06 847 25.01 -3.3 26.1 67 -8.5 16.6 0 0
21:01 1018 30.06 847 25.01 -3.4 26 68 -8.5 16.7 0 0
21:02 1018 30.06 847 25.01 -3.5 25.7 68 -8.6 16.6 0 0
21:03 1018 30.06 847 25.01 -3.7 25.4 69 -8.5 16.8 0 0
21:04 1018 30.06 847 25.01 -3.8 25.1 70 -8.5 16.7 0 0
21:05 1018 30.06 847 25.01 -3.9 25.1 70 -8.6 16.5 0 0
21:06 1018 30.06 847 25.01 -3.8 25.1 69 -8.8 16.2 0 0
21:07 1018 30.06 847 25.01 -3.8 25.1 68 -8.9 15.9 0 0
21:08 1018 30.06 847 25.01 -3.9 25.1 67 -9.1 15.6 0 0
21:09 1018 30.06 847 25.01 -3.9 25.1 67 -9.2 15.5 0 0
21:10 1018 30.06 847 25.01 -3.8 25.1 67 -9.1 15.6 0 0
21:11 1018 30.06 847 25.01 -3.8 25.2 67 -9 15.7 0 0
21:12 1018 30.06 847 25.01 -3.9 25.1 67 -9.1 15.6 0 0
21:13 1018 30.06 847 25.01 -3.9 25 66 -9.3 15.3 0 0
21:14 1018 30.06 847 25.01 -3.8 25.2 66 -9.2 15.5 0 0
21:15 1018 30.06 847 25.01 -3.7 25.4 66 -9.2 15.5 0 0
21:16 1018 30.06 847 25.01 -3.6 25.6 64 -9.3 15.2 0 0
21:17 1018 30.06 847 25.01 -3.5 25.8 65 -9.2 15.5 0 0
21:18 1018 30.06 847 25.01 -3.5 25.7 66 -9 15.8 0 0
21:19 1018 30.06 847 25.01 -3.5 25.8 65 -9.1 15.7 0 0
21:20 1018 30.06 847 25.01 -3.4 25.8 65 -9.2 15.5 0 0
21:21 1018 30.06 847 25.01 -3.5 25.7 64 -9.4 15 0 0
21:22 1018 30.06 847 25.01 -3.4 25.8 65 -9.1 15.6 0 0
21:23 1018 30.06 847 25.01 -3.5 25.8 65 -9.1 15.7 0 0
21:24 1018 30.06 847 25.01 -3.6 25.6 65 -9.2 15.4 0 0
21:25 1018 30.06 847 25.01 -3.7 25.4 64 -9.5 14.8 0 0
21:26 1018 30.06 847 25.01 -3.8 25.2 64 -9.6 14.6 0 0
21:27 1018 30.06 847 25.01 -3.9 25 66 -9.4 15.2 0 0
21:28 1018 30.06 847 25.01 -3.8 25.2 70 -8.6 16.6 0 0
21:29 1018 30.06 847 25.01 -3.6 25.4 66 -9 15.8 0 0
21:30 1018 30.06 847 25.01 -3.4 25.9 65 -9.1 15.5 0 0
21:31 1018 30.06 847 25.01 -3.2 26.2 64 -9.2 15.5 0 0
21:32 1018 30.06 847 25.01 -3 26.5 65 -8.8 16.1 0 0
21:33 1018 30.06 848 25.04 -2.9 26.8 66 -8.5 16.8 0 0
21:34 1018 30.06 848 25.04 -2.8 26.9 66 -8.3 17.1 0 0
21:35 1018 30.06 848 25.04 -2.8 27 66 -8.3 17.1 0 0
21:36 1018 30.06 848 25.04 -2.7 27.1 65 -8.4 16.9 0 0
21:37 1018 30.06 847 25.01 -2.8 27 65 -8.4 16.8 0 0
21:38 1018 30.06 848 25.04 -2.8 26.9 65 -8.6 16.5 0 0
21:39 1018 30.06 848 25.04 -2.9 26.8 64 -8.8 16.2 0 0
21:40 1018 30.06 848 25.04 -2.8 27 64 -8.7 16.3 0 0
21:41 1018 30.06 848 25.04 -2.7 27.2 64 -8.5 16.7 0 0
21:42 1018 30.06 847 25.01 -2.7 27.2 64 -8.5 16.6 0 0
21:43 1018 30.06 848 25.04 -2.7 27.1 64 -8.5 16.6 0 0
21:44 1018 30.06 847 25.01 -2.8 27 65 -8.4 16.9 0 0
21:45 1018 30.06 847 25.01 -2.9 26.7 66 -8.4 16.9 0 0
21:46 1018 30.06 847 25.01 -3.1 26.4 67 -8.4 16.9 0 0
21:47 1018 30.06 847 25.01 -3.2 26.3 66 -8.6 16.5 0 0
21:48 1018 30.06 847 25.01 -3.1 26.5 65 -8.7 16.3 0 0
21:49 1018 30.06 847 25.01 -3.1 26.5 65 -8.7 16.3 0 0
21:50 1018 30.06 848 25.04 -3.1 26.5 66 -8.6 16.4 0 0
21:51 1018 30.06 848 25.04 -3.2 26.2 66 -8.8 16.2 0 0
21:52 1018 30.06 848 25.04 -3.2 26.2 65 -8.8 16.1 0 0
21:53 1018 30.06 848 25.04 -3.2 26.3 65 -9 15.9 0 0
21:54 1018 30.06 848 25.04 -3.1 26.4 63 -9.2 15.5 0 0
21:55 1018 30.06 848 25.04 -3 26.6 62 -9.3 15.2 0 0
21:56 1018 30.06 848 25.04 -2.9 26.8 61 -9.4 15.1 0 0
21:57 1018 30.06 848 25.04 -2.8 26.9 60 -9.6 14.7 0 0
21:58 1018 30.06 848 25.04 -2.8 27 59 -9.8 14.4 0 0
21:59 1018 30.06 848 25.04 -2.7 27.2 59 -9.7 14.6 0 0
22:00 1018 30.06 848 25.04 -2.6 27.3 58 -9.8 14.3 0 0
22:01 1018 30.06 848 25.04 -2.6 27.3 58 -9.9 14.2 0 0
22:02 1018 30.06 848 25.04 -2.6 27.4 58 -9.8 14.3 0 0
22:03 1018 30.06 848 25.04 -2.6 27.4 57 -10 14 0 0
22:04 1018 30.06 848 25.04 -2.5 27.5 57 -10 14.1 0 0
22:05 1018 30.06 848 25.04 -2.5 27.5 57 -9.9 14.2 0 0
22:06 1018 30.06 848 25.04 -2.6 27.4 58 -9.8 14.3 0 0
22:07 1018 30.06 848 25.04 -2.6 27.2 57 -10 14 0 0
22:08 1018 30.06 848 25.04 -2.7 27.2 57 -9.9 14.1 0 0
22:09 1018 30.06 848 25.04 -2.7 27.2 60 -9.3 15.3 0 0
22:10 1018 30.06 848 25.04 -2.6 27.3 61 -9.1 15.7 0 0
22:11 1018 30.06 848 25.04 -2.7 27.2 60 -9.3 15.3 0 0
22:12 1018 30.06 848 25.04 -2.8 27 59 -9.7 14.6 0 0
22:13 1018 30.06 848 25.04 -2.8 26.9 59 -9.8 14.3 0 0
22:14 1018 30.06 848 25.04 -2.8 26.9 58 -10.1 13.8 0 0
22:15 1018 30.06 848 25.04 -2.8 27 58 -9.9 14.2 0 0
22:16 1018 30.06 848 25.04 -2.8 27 57 -10.1 13.9 0 0
22:17 1018 30.06 848 25.04 -2.7 27.1 56 -10.3 13.5 0 0
22:18 1018 30.06 848 25.04 -2.7 27.2 55 -10.6 13 0 0
22:19 1018 30.06 847 25.01 -2.6 27.4 54 -10.6 12.9 0 0
22:20 1018 30.06 847 25.01 -2.5 27.5 55 -10.4 13.3 0 0
22:21 1018 30.06 847 25.01 -2.5 27.6 55 -10.4 13.3 0 0
22:22 1018 30.06 847 25.01 -2.4 27.7 55 -10.2 13.7 0 0
22:23 1018 30.06 847 25.01 -2.4 27.7 54 -10.6 13 0 0
22:24 1018 30.06 847 25.01 -2.4 27.7 53 -10.6 12.8 0 0
22:25 1018 30.06 847 25.01 -2.3 27.8 53 -10.6 12.9 0 0
22:26 1018 30.06 847 25.01 -2.3 27.9 53 -10.7 12.8 0 0
22:27 1018 30.06 847 25.01 -2.3 27.9 53 -10.6 13 0 0
22:28 1018 30.06 847 25.01 -2.3 27.8 53 -10.5 13 0 0
22:29 1018 30.06 847 25.01 -2.3 27.9 53 -10.6 12.9 0 0
22:30 1018 30.06 847 25.01 -2.3 27.9 53 -10.7 12.8 0 0
22:31 1018 30.06 847 25.01 -2.3 27.9 53 -10.6 13 0 0
22:32 1018 30.06 847 25.01 -2.2 28.1 53 -10.6 13 0 0
22:33 1018 30.06 847 25.01 -2.1 28.2 52 -10.6 12.9 0 0
22:34 1018 30.06 847 25.01 -2 28.4 51 -10.8 12.5 0 0
22:35 1018 30.06 847 25.01 -1.9 28.6 52 -10.5 13.1 0 0
22:36 1018 30.06 847 25.01 -1.9 28.5 52 -10.5 13.1 0 0
22:37 1018 30.06 847 25.01 -1.8 28.7 50 -11 12.1 0 0
22:38 1018 30.06 847 25.01 -1.7 28.9 50 -10.8 12.6 0 0
22:39 1018 30.06 847 25.01 -1.7 29 50 -10.7 12.8 0 0
22:40 1018 30.06 847 25.01 -1.7 28.9 54 -9.9 14.3 0 0
22:41 1018 30.06 847 25.01 -1.8 28.8 51 -10.6 12.9 0 0
22:42 1018 30.06 847 25.01 -1.8 28.8 52 -10.4 13.3 0 0
22:43 1018 30.06 847 25.01 -1.9 28.6 52 -10.5 13.2 0 0
22:44 1018 30.06 847 25.01 -1.9 28.5 50 -11 12.2 0 0
22:45 1018 30.06 847 25.01 -2 28.5 51 -10.9 12.4 0 0
22:46 1018 30.06 847 25.01 -2 28.4 50 -11.1 12 0 0
22:47 1018 30.06 847 25.01 -2 28.4 52 -10.5 13.1 0 0
22:48 1018 30.06 847 25.01 -2.1 28.2 53 -10.5 13.1 0 0
22:49 1018 30.06 847 25.01 -2.3 27.9 54 -10.5 13.2 0 0
22:50 1018 30.06 847 25.01 -2.4 27.6 53 -10.8 12.6 0 0
22:51 1018 30.06 847 25.01 -2.4 27.6 53 -10.8 12.5 0 0
22:52 1018 30.06 847 25.01 -2.5 27.6 51 -11.3 11.6 0 0
22:53 1018 30.06 847 25.01 -2.4 27.7 49 -11.7 11 0 0
22:54 1018 30.06 847 25.01 -2.2 28 51 -11.2 11.9 0 0
22:55 1018 30.06 847 25.01 -2.3 27.9 51 -11.2 11.9 0 0
22:56 1018 30.06 847 25.01 -2.3 27.9 52 -11 12.3 0 0
22:57 1018 30.06 847 25.01 -2.3 27.8 51 -11.2 11.9 0 0
22:58 1018 30.06 847 25.01 -2.3 27.8 51 -11.2 11.9 0 0
22:59 1018 30.06 847 25.01 -2.3 27.8 51 -11.1 12 0 0
23:00 1018 30.06 847 25.01 -2.4 27.8 52 -11 12.2 0 0
23:01 1018 30.06 847 25.01 -2.5 27.6 53 -10.9 12.5 0 0
23:02 1018 30.06 847 25.01 -2.4 27.6 52 -11.1 12.1 0 0
23:03 1018 30.06 847 25.01 -2.3 27.8 52 -10.9 12.3 0 0
23:04 1018 30.06 847 25.01 -2.3 27.9 51 -11.1 12.1 0 0
23:05 1018 30.06 847 25.01 -2.3 27.9 52 -10.9 12.4 0 0
23:06 1018 30.06 847 25.01 -2.4 27.7 52 -10.9 12.3 0 0
23:07 1018 30.06 847 25.01 -2.4 27.7 52 -11 12.1 0 0
23:08 1018 30.06 847 25.01 -2.4 27.7 50 -11.4 11.4 0 0
23:09 1018 30.06 847 25.01 -2.3 27.8 50 -11.3 11.6 0 0
23:10 1018 30.06 847 25.01 -2.3 27.9 51 -11 12.2 0 0
23:11 1018 30.06 847 25.01 -2.4 27.7 52 -10.9 12.3 0 0
23:12 1018 30.06 847 25.01 -2.4 27.6 53 -10.9 12.4 0 0
23:13 1018 30.06 847 25.01 -2.5 27.6 52 -11.1 12 0 0
23:14 1018 30.06 847 25.01 -2.5 27.6 50 -11.6 11.2 0 0
23:15 1018 30.06 847 25.01 -2.4 27.7 51 -11.2 11.9 0 0
23:16 1018 30.06 847 25.01 -2.4 27.7 51 -11.1 12 0 0
23:17 1018 30.06 847 25.01 -2.4 27.6 52 -11 12.2 0 0
23:18 1018 30.06 847 25.01 -2.5 27.4 53 -10.8 12.6 0 0
23:19 1018 30.06 847 25.01 -2.6 27.3 53 -11 12.2 0 0
23:20 1018 30.06 847 25.01 -2.6 27.3 53 -10.9 12.3 0 0
23:21 1018 30.06 847 25.01 -2.7 27.2 53 -10.9 12.3 0 0
23:22 1018 30.06 847 25.01 -2.7 27.1 52 -11.2 11.9 0 0
23:23 1018 30.06 847 25.01 -2.7 27.1 52 -11.3 11.7 0 0
23:24 1018 30.06 847 25.01 -2.7 27.1 51 -11.4 11.4 0 0
23:25 1018 30.06 847 25.01 -2.6 27.3 51 -11.4 11.5 0 0
23:26 1018 30.06 847 25.01 -2.5 27.4 52 -11.1 12 0 0
23:27 1018 30.06 847 25.01 -2.5 27.4 52 -11.1 12 0 0
23:28 1018 30.06 847 25.01 -2.5 27.4 52 -11 12.2 0 0
23:29 1018 30.06 847 25.01 -2.6 27.4 52 -11 12.1 0 0
23:30 1018 30.06 847 25.01 -2.5 27.4 51 -11.3 11.6 0 0
23:31 1018 30.06 847 25.01 -2.4 27.6 51 -11.3 11.7 0 0
23:32 1018 30.06 847 25.01 -2.4 27.7 52 -11 12.2 0 0
23:33 1018 30.06 847 25.01 -2.4 27.6 52 -11.1 12 0 0
23:34 1018 30.06 847 25.01 -2.5 27.6 52 -11.1 12 0 0
23:35 1018 30.06 847 25.01 -2.5 27.5 52 -11.1 12.1 0 0
23:36 1018 30.06 847 25.01 -2.5 27.5 53 -10.9 12.4 0 0
23:37 1018 30.06 847 25.01 -2.5 27.4 53 -10.8 12.5 0 0
23:38 1018 30.06 847 25.01 -2.5 27.4 53 -10.8 12.6 0 0
23:39 1018 30.06 847 25.01 -2.5 27.5 51 -11.2 11.8 0 0
23:40 1018 30.06 847 25.01 -2.5 27.5 51 -11.4 11.6 0 0
23:41 1018 30.06 847 25.01 -2.4 27.6 51 -11.2 11.9 0 0
23:42 1018 30.06 847 25.01 -2.4 27.6 52 -10.9 12.3 0 0
23:43 1018 30.06 847 25.01 -2.5 27.6 53 -10.9 12.5 0 0
23:44 1018 30.06 847 25.01 -2.5 27.5 51 -11.3 11.6 0 0
23:45 1018 30.06 847 25.01 -2.4 27.6 50 -11.5 11.3 0 0
23:46 1018 30.06 847 25.01 -2.4 27.7 51 -11.2 11.9 0 0
23:47 1018 30.06 847 25.01 -2.3 27.8 49 -11.6 11.2 0 0
23:48 1018 30.06 847 25.01 -2.3 27.8 48 -11.8 10.7 0 0
23:49 1018 30.06 847 25.01 -2.3 27.9 48 -11.8 10.7 0 0
23:50 1018 30.06 847 25.01 -2.2 28 48 -11.9 10.6 0 0
23:51 1018 30.06 847 25.01 -2.2 28 48 -11.7 10.9 0 0
23:52 1018 30.06 847 25.01 -2.2 28 48 -11.8 10.8 0 0
23:53 1018 30.06 847 25.01 -2.2 28 50 -11.2 11.8 0 0
23:54 1018 30.06 847 25.01 -2.3 27.9 48 -11.9 10.7 0 0
23:55 1018 30.06 847 25.01 -2.3 27.9 50 -11.4 11.5 0 0
23:56 1018 30.06 847 25.01 -2.4 27.8 51 -11.1 12.1 0 0
23:57 1018 30.06 847 25.01 -2.5 27.5 53 -10.9 12.3 0 0
23:58 1018 30.06 847 25.01 -2.6 27.3 53 -10.9 12.4 0 0
23:59 1018 30.06 847 25.01 -2.7 27.1 54 -10.9 12.5 0 0
24:00 1018 30.06 847 25.01 -2.8 27 54 -10.9 12.3 0 0